createdAt,value
2022-12-25T00:02:23.165Z,24.57
2022-12-25T00:04:50.050Z,24.57
2022-12-25T00:07:16.931Z,24.57
2022-12-25T00:09:43.844Z,24.57
2022-12-25T00:12:10.745Z,24.58
2022-12-25T00:14:38.977Z,24.57
2022-12-25T00:17:05.926Z,24.56
2022-12-25T00:19:33.097Z,24.55
2022-12-25T00:21:59.982Z,24.56
2022-12-25T00:24:26.899Z,24.56
2022-12-25T00:26:53.791Z,24.57
2022-12-25T00:29:20.685Z,24.56
2022-12-25T00:31:49.161Z,24.56
2022-12-25T00:34:16.157Z,24.56
2022-12-25T00:36:43.123Z,24.53
2022-12-25T00:39:10.472Z,24.53
2022-12-25T00:41:56.278Z,24.53
2022-12-25T00:44:23.158Z,24.54
2022-12-25T00:46:51.498Z,24.53
2022-12-25T00:49:18.499Z,24.52
2022-12-25T00:51:45.554Z,24.52
2022-12-25T00:54:12.493Z,24.52
2022-12-25T00:56:40.096Z,24.52
2022-12-25T00:59:07.536Z,24.53
2022-12-25T01:01:34.825Z,24.52
2022-12-25T01:04:03.327Z,24.52
2022-12-25T01:06:30.573Z,24.51
2022-12-25T01:09:16.455Z,24.50
2022-12-25T01:11:43.502Z,24.50
2022-12-25T01:14:10.775Z,24.50
2022-12-25T01:16:38.233Z,24.47
2022-12-25T01:19:06.561Z,24.50
2022-12-25T01:21:33.863Z,24.50
2022-12-25T01:24:00.733Z,24.48
2022-12-25T01:26:27.899Z,24.48
2022-12-25T01:28:55.173Z,24.49
2022-12-25T01:31:24.131Z,24.48
2022-12-25T01:33:51.594Z,24.46
2022-12-25T01:36:22.075Z,24.45
2022-12-25T01:38:50.476Z,24.47
2022-12-25T01:41:19.346Z,24.47
2022-12-25T01:44:01.101Z,24.46
2022-12-25T01:46:28.434Z,24.46
2022-12-25T01:48:59.001Z,24.46
2022-12-25T01:51:32.015Z,24.45
2022-12-25T01:54:02.367Z,24.45
2022-12-25T01:56:30.198Z,24.44
2022-12-25T01:58:58.474Z,24.44
2022-12-25T02:01:25.757Z,24.45
2022-12-25T02:03:59.330Z,24.45
2022-12-25T02:06:30.767Z,24.43
2022-12-25T02:08:59.210Z,24.42
2022-12-25T02:11:44.888Z,24.44
2022-12-25T02:14:11.920Z,24.42
2022-12-25T02:16:57.864Z,24.43
2022-12-25T02:19:38.497Z,24.44
2022-12-25T02:22:21.283Z,24.42
2022-12-25T02:24:57.488Z,24.42
2022-12-25T02:28:01.045Z,24.42
2022-12-25T02:30:35.674Z,24.41
2022-12-25T02:33:28.137Z,24.41
2022-12-25T02:35:57.153Z,24.41
2022-12-25T02:38:31.122Z,24.41
2022-12-25T02:41:01.766Z,24.40
2022-12-25T02:43:51.340Z,24.42
2022-12-25T02:46:42.430Z,24.40
2022-12-25T02:49:31.606Z,24.39
2022-12-25T02:52:22.633Z,24.38
2022-12-25T02:55:13.193Z,24.37
2022-12-25T02:58:01.224Z,24.36
2022-12-25T03:00:47.561Z,24.37
2022-12-25T03:03:35.711Z,24.38
2022-12-25T03:06:23.758Z,24.37
2022-12-25T03:08:54.395Z,24.37
2022-12-25T03:11:33.618Z,24.37
2022-12-25T03:14:21.185Z,24.36
2022-12-25T03:16:50.631Z,24.37
2022-12-25T03:19:39.941Z,24.37
2022-12-25T03:22:26.664Z,24.37
2022-12-25T03:25:13.520Z,24.36
2022-12-25T03:27:44.467Z,24.35
2022-12-25T03:30:30.838Z,24.38
2022-12-25T03:33:23.294Z,24.38
2022-12-25T03:36:03.928Z,24.37
2022-12-25T03:38:49.972Z,24.38
2022-12-25T03:41:44.311Z,24.37
2022-12-25T03:44:40.221Z,24.37
2022-12-25T03:47:32.463Z,24.35
2022-12-25T03:50:24.579Z,24.35
2022-12-25T03:53:14.203Z,24.35
2022-12-25T03:56:00.557Z,24.35
2022-12-25T03:58:46.892Z,24.34
2022-12-25T04:01:32.911Z,24.33
2022-12-25T04:04:18.936Z,24.34
2022-12-25T04:07:04.212Z,24.33
2022-12-25T04:09:51.424Z,24.34
2022-12-25T04:12:36.737Z,24.32
2022-12-25T04:15:22.662Z,24.32
2022-12-25T04:18:10.402Z,24.33
2022-12-25T04:20:55.681Z,24.33
2022-12-25T04:23:40.808Z,24.34
2022-12-25T04:26:27.308Z,24.34
2022-12-25T04:29:12.512Z,24.33
2022-12-25T04:31:57.817Z,24.32
2022-12-25T04:34:43.036Z,24.30
2022-12-25T04:37:10.096Z,24.31
2022-12-25T04:39:36.954Z,24.33
2022-12-25T04:42:05.317Z,24.33
2022-12-25T04:44:32.184Z,24.35
2022-12-25T04:46:59.214Z,24.35
2022-12-25T04:49:26.880Z,24.36
2022-12-25T04:51:53.925Z,24.36
2022-12-25T04:54:20.886Z,24.36
2022-12-25T04:56:47.851Z,24.36
2022-12-25T04:59:16.108Z,24.35
2022-12-25T05:01:43.204Z,24.37
2022-12-25T05:04:10.279Z,24.36
2022-12-25T05:06:37.418Z,24.35
2022-12-25T05:09:04.429Z,24.35
2022-12-25T05:11:31.371Z,24.35
2022-12-25T05:13:58.529Z,24.35
2022-12-25T05:16:27.253Z,24.35
2022-12-25T05:18:54.181Z,24.36
2022-12-25T05:21:21.279Z,24.36
2022-12-25T05:23:49.977Z,24.36
2022-12-25T05:26:19.017Z,24.34
2022-12-25T05:28:45.989Z,24.34
2022-12-25T05:31:13.123Z,24.34
2022-12-25T05:33:41.651Z,24.37
2022-12-25T05:36:11.426Z,24.36
2022-12-25T05:38:39.113Z,24.35
2022-12-25T05:41:05.968Z,24.34
2022-12-25T05:43:33.406Z,24.34
2022-12-25T05:46:06.043Z,24.35
2022-12-25T05:48:33.406Z,24.35
2022-12-25T05:51:05.775Z,24.34
2022-12-25T05:53:32.770Z,24.32
2022-12-25T05:56:02.899Z,24.32
2022-12-25T05:58:30.108Z,24.33
2022-12-25T06:00:57.518Z,24.33
2022-12-25T06:03:24.788Z,24.35
2022-12-25T06:05:52.500Z,24.35
2022-12-25T06:08:21.154Z,24.32
2022-12-25T06:10:48.154Z,24.33
2022-12-25T06:13:15.178Z,24.32
2022-12-25T06:15:42.571Z,24.33
2022-12-25T06:18:09.509Z,24.30
2022-12-25T06:20:36.458Z,24.35
2022-12-25T06:23:03.354Z,24.39
2022-12-25T06:25:31.752Z,24.44
2022-12-25T06:27:58.694Z,24.46
2022-12-25T06:30:25.847Z,24.50
2022-12-25T06:32:52.761Z,24.54
2022-12-25T06:35:19.680Z,24.56
2022-12-25T06:37:46.540Z,24.60
2022-12-25T06:40:14.210Z,24.64
2022-12-25T06:42:42.430Z,24.67
2022-12-25T06:45:10.766Z,24.72
2022-12-25T06:47:37.930Z,24.75
2022-12-25T06:50:06.313Z,24.79
2022-12-25T06:52:33.762Z,24.84
2022-12-25T06:55:00.671Z,24.88
2022-12-25T06:57:27.548Z,24.92
2022-12-25T06:59:56.083Z,24.95
2022-12-25T07:02:24.503Z,25.01
2022-12-25T07:04:52.463Z,25.05
2022-12-25T07:07:20.784Z,25.08
2022-12-25T07:09:47.676Z,25.12
2022-12-25T07:12:17.047Z,25.12
2022-12-25T07:14:43.993Z,25.17
2022-12-25T07:17:12.278Z,25.16
2022-12-25T07:19:44.619Z,25.20
2022-12-25T07:22:12.607Z,25.20
2022-12-25T07:24:39.477Z,25.25
2022-12-25T07:27:06.405Z,25.25
2022-12-25T07:29:33.296Z,25.30
2022-12-25T07:32:00.374Z,25.30
2022-12-25T07:34:28.671Z,25.31
2022-12-25T07:36:55.616Z,25.33
2022-12-25T07:39:23.811Z,25.32
2022-12-25T07:41:51.326Z,25.34
2022-12-25T07:44:18.468Z,25.34
2022-12-25T07:46:45.706Z,25.34
2022-12-25T07:49:13.074Z,25.35
2022-12-25T07:51:41.383Z,25.36
2022-12-25T07:54:08.473Z,25.36
2022-12-25T07:56:35.362Z,25.36
2022-12-25T07:59:02.227Z,25.36
2022-12-25T08:01:29.984Z,25.37
2022-12-25T08:03:59.087Z,25.38
2022-12-25T08:06:29.824Z,25.39
2022-12-25T08:09:03.671Z,25.39
2022-12-25T08:11:30.673Z,25.38
2022-12-25T08:13:57.524Z,25.38
2022-12-25T08:16:24.901Z,25.38
2022-12-25T08:18:51.885Z,25.37
2022-12-25T08:21:19.040Z,25.37
2022-12-25T08:23:47.269Z,25.38
2022-12-25T08:26:17.449Z,25.37
2022-12-25T08:28:44.704Z,25.36
2022-12-25T08:31:14.785Z,25.35
2022-12-25T08:33:42.704Z,25.36
2022-12-25T08:36:11.081Z,25.35
2022-12-25T08:38:38.544Z,25.36
2022-12-25T08:41:05.858Z,25.35
2022-12-25T08:43:34.113Z,25.33
2022-12-25T08:46:01.056Z,25.35
2022-12-25T08:48:28.565Z,25.34
2022-12-25T08:50:55.617Z,25.34
2022-12-25T08:53:22.857Z,25.33
2022-12-25T08:55:49.776Z,25.34
2022-12-25T08:58:16.758Z,25.32
2022-12-25T09:00:45.047Z,25.31
2022-12-25T09:03:12.056Z,25.31
2022-12-25T09:05:38.943Z,25.32
2022-12-25T09:08:05.898Z,25.30
2022-12-25T09:10:36.686Z,25.32
2022-12-25T09:13:04.343Z,25.31
2022-12-25T09:15:31.808Z,25.32
2022-12-25T09:18:00.207Z,25.31
2022-12-25T09:20:27.070Z,25.31
2022-12-25T09:22:53.995Z,25.31
2022-12-25T09:25:20.873Z,25.31
2022-12-25T09:27:47.738Z,25.32
2022-12-25T09:30:15.374Z,25.32
2022-12-25T09:32:42.253Z,25.33
2022-12-25T09:35:10.700Z,25.32
2022-12-25T09:37:37.849Z,25.29
2022-12-25T09:40:05.953Z,25.29
2022-12-25T09:42:34.539Z,25.29
2022-12-25T09:45:05.945Z,25.28
2022-12-25T09:47:34.205Z,25.26
2022-12-25T09:50:07.229Z,25.22
2022-12-25T09:52:44.990Z,25.20
2022-12-25T09:55:19.832Z,25.16
2022-12-25T09:57:50.634Z,25.10
2022-12-25T10:00:19.864Z,25.10
2022-12-25T10:03:11.625Z,25.10
2022-12-25T10:05:57.529Z,25.10
2022-12-25T10:08:37.353Z,25.09
2022-12-25T10:11:18.569Z,25.08
2022-12-25T10:13:58.779Z,25.08
2022-12-25T10:16:36.248Z,25.07
2022-12-25T10:19:14.394Z,25.07
2022-12-25T10:21:41.422Z,25.07
2022-12-25T10:24:21.129Z,25.05
2022-12-25T10:26:50.600Z,25.04
2022-12-25T10:29:22.181Z,25.03
2022-12-25T10:31:53.683Z,25.01
2022-12-25T10:34:21.094Z,25.01
2022-12-25T10:36:50.059Z,25.01
2022-12-25T10:39:20.010Z,25.00
2022-12-25T10:42:03.455Z,24.98
2022-12-25T10:44:30.604Z,25.00
2022-12-25T10:46:59.235Z,24.98
2022-12-25T10:49:35.226Z,24.97
2022-12-25T10:52:03.866Z,24.97
2022-12-25T10:54:35.236Z,24.96
2022-12-25T10:57:02.826Z,24.96
2022-12-25T10:59:34.053Z,24.93
2022-12-25T11:02:11.677Z,24.89
2022-12-25T11:04:38.764Z,24.90
2022-12-25T11:07:07.595Z,24.91
2022-12-25T11:09:35.940Z,24.89
2022-12-25T11:12:02.953Z,24.88
2022-12-25T11:14:30.697Z,24.87
2022-12-25T11:17:07.700Z,24.86
2022-12-25T11:19:34.634Z,24.87
2022-12-25T11:22:03.873Z,24.87
2022-12-25T11:24:32.432Z,24.86
2022-12-25T11:27:02.800Z,24.84
2022-12-25T11:29:37.386Z,24.84
2022-12-25T11:32:11.087Z,24.84
2022-12-25T11:34:43.904Z,24.83
2022-12-25T11:37:16.182Z,24.83
2022-12-25T11:39:43.404Z,24.83
2022-12-25T11:42:16.282Z,24.80
2022-12-25T11:44:49.676Z,24.79
2022-12-25T11:47:21.906Z,24.79
2022-12-25T11:50:00.748Z,24.78
2022-12-25T11:52:32.475Z,24.77
2022-12-25T11:55:02.512Z,24.77
2022-12-25T11:57:33.295Z,24.74
2022-12-25T12:00:06.970Z,24.74
2022-12-25T12:02:38.800Z,24.73
2022-12-25T12:05:18.859Z,24.73
2022-12-25T12:07:55.589Z,24.73
2022-12-25T12:10:41.622Z,24.73
2022-12-25T12:13:32.155Z,24.73
2022-12-25T12:15:59.374Z,24.72
2022-12-25T12:18:31.995Z,24.71
2022-12-25T12:21:01.938Z,24.71
2022-12-25T12:23:31.015Z,24.72
2022-12-25T12:25:58.291Z,24.71
2022-12-25T12:28:28.430Z,24.70
2022-12-25T12:31:01.828Z,24.72
2022-12-25T12:33:33.859Z,24.70
2022-12-25T12:36:02.277Z,24.69
2022-12-25T12:38:30.973Z,24.69
2022-12-25T12:41:00.717Z,24.70
2022-12-25T12:43:33.564Z,24.68
2022-12-25T12:46:05.385Z,24.70
2022-12-25T12:48:40.574Z,24.70
2022-12-25T12:51:10.898Z,24.69
2022-12-25T12:53:39.660Z,24.70
2022-12-25T12:56:15.893Z,24.69
2022-12-25T12:58:49.931Z,24.69
2022-12-25T13:01:39.283Z,24.68
2022-12-25T13:04:32.525Z,24.68
2022-12-25T13:07:10.319Z,24.67
2022-12-25T13:09:49.727Z,24.67
2022-12-25T13:12:18.023Z,24.66
2022-12-25T13:14:47.967Z,24.66
2022-12-25T13:17:18.923Z,24.67
2022-12-25T13:19:46.925Z,24.67
2022-12-25T13:22:24.488Z,24.66
2022-12-25T13:24:59.890Z,24.66
2022-12-25T13:27:28.948Z,24.64
2022-12-25T13:29:57.997Z,24.67
2022-12-25T13:32:28.530Z,24.64
2022-12-25T13:34:55.880Z,24.66
2022-12-25T13:37:24.726Z,24.65
2022-12-25T13:39:54.765Z,24.63
2022-12-25T13:42:25.404Z,24.64
2022-12-25T13:44:55.106Z,24.64
2022-12-25T13:47:25.877Z,24.65
2022-12-25T13:49:54.825Z,24.65
2022-12-25T13:52:24.267Z,24.64
2022-12-25T13:55:00.868Z,24.63
2022-12-25T13:57:31.361Z,24.63
2022-12-25T13:59:59.015Z,24.64
2022-12-25T14:02:31.846Z,24.63
2022-12-25T14:04:58.975Z,24.64
2022-12-25T14:07:27.290Z,24.64
2022-12-25T14:09:58.517Z,24.63
2022-12-25T14:12:27.993Z,24.65
2022-12-25T14:14:56.289Z,24.64
2022-12-25T14:17:23.698Z,24.65
2022-12-25T14:20:04.068Z,24.64
2022-12-25T14:22:36.052Z,24.64
2022-12-25T14:25:03.038Z,24.65
2022-12-25T14:27:32.762Z,24.65
2022-12-25T14:30:00.766Z,24.63
2022-12-25T14:32:30.587Z,24.62
2022-12-25T14:35:04.611Z,24.62
2022-12-25T14:37:33.295Z,24.61
2022-12-25T14:40:02.021Z,24.64
2022-12-25T14:42:31.437Z,24.64
2022-12-25T14:45:04.544Z,24.64
2022-12-25T14:47:32.898Z,24.63
2022-12-25T14:50:01.224Z,24.63
2022-12-25T14:52:32.935Z,24.62
2022-12-25T14:55:01.942Z,24.64
2022-12-25T14:57:33.262Z,24.62
2022-12-25T15:00:05.295Z,24.63
2022-12-25T15:02:43.374Z,24.61
2022-12-25T15:05:29.535Z,24.62
2022-12-25T15:08:06.337Z,24.61
2022-12-25T15:13:20.472Z,24.59
2022-12-25T15:15:51.452Z,24.61
2022-12-25T15:18:19.902Z,24.61
2022-12-25T15:20:52.378Z,24.61
2022-12-25T15:23:21.007Z,24.61
2022-12-25T15:25:48.467Z,24.62
2022-12-25T15:28:15.403Z,24.62
2022-12-25T15:30:42.495Z,24.64
2022-12-25T15:33:14.539Z,24.64
2022-12-25T15:35:41.764Z,24.64
2022-12-25T15:38:10.401Z,24.64
2022-12-25T15:40:37.648Z,24.66
2022-12-25T15:43:11.318Z,24.64
2022-12-25T15:45:49.507Z,24.64
2022-12-25T15:48:16.470Z,24.65
2022-12-25T15:50:44.330Z,24.63
2022-12-25T15:53:12.848Z,24.64
2022-12-25T15:55:40.222Z,24.64
2022-12-25T15:58:11.172Z,24.63
2022-12-25T16:00:38.127Z,24.63
2022-12-25T16:03:05.054Z,24.63
2022-12-25T16:05:32.031Z,24.62
2022-12-25T16:07:58.974Z,24.61
2022-12-25T16:10:29.202Z,24.61
2022-12-25T16:12:59.087Z,24.62
2022-12-25T16:15:26.235Z,24.63
2022-12-25T16:17:53.087Z,24.61
2022-12-25T16:20:20.033Z,24.60
2022-12-25T16:22:46.876Z,24.60
2022-12-25T16:25:16.009Z,24.61
2022-12-25T16:27:44.826Z,24.59
2022-12-25T16:30:14.594Z,24.61
2022-12-25T16:32:45.342Z,24.63
2022-12-25T16:35:12.499Z,24.59
2022-12-25T16:37:39.872Z,24.59
2022-12-25T16:40:09.624Z,24.59
2022-12-25T16:42:37.147Z,24.60
2022-12-25T16:45:06.717Z,24.61
2022-12-25T16:47:33.875Z,24.60
2022-12-25T16:50:00.942Z,24.60
2022-12-25T16:52:27.849Z,24.58
2022-12-25T16:54:54.769Z,24.60
2022-12-25T16:57:21.630Z,24.59
2022-12-25T16:59:48.631Z,24.59
2022-12-25T17:02:19.050Z,24.60
2022-12-25T17:04:47.062Z,24.59
2022-12-25T17:07:16.240Z,24.59
2022-12-25T17:09:44.556Z,24.61
2022-12-25T17:12:11.630Z,24.60
2022-12-25T17:14:38.534Z,24.60
2022-12-25T17:17:05.680Z,24.61
2022-12-25T17:19:34.029Z,24.58
2022-12-25T17:22:00.945Z,24.59
2022-12-25T17:24:28.845Z,24.59
2022-12-25T17:26:55.956Z,24.59
2022-12-25T17:29:23.236Z,24.57
2022-12-25T17:31:51.259Z,24.58
2022-12-25T17:34:18.392Z,24.58
2022-12-25T17:36:47.005Z,24.59
2022-12-25T17:39:13.853Z,24.58
2022-12-25T17:41:40.765Z,24.59
2022-12-25T17:44:09.664Z,24.59
2022-12-25T17:46:40.519Z,24.57
2022-12-25T17:49:08.635Z,24.58
2022-12-25T17:51:35.571Z,24.56
2022-12-25T17:54:04.072Z,24.55
2022-12-25T17:56:31.937Z,24.55
2022-12-25T17:59:01.245Z,24.55
2022-12-25T18:01:29.341Z,24.56
2022-12-25T18:03:58.522Z,24.58
2022-12-25T18:06:27.891Z,24.56
2022-12-25T18:08:55.902Z,24.54
2022-12-25T18:11:29.177Z,24.56
2022-12-25T18:13:57.995Z,24.58
2022-12-25T18:16:26.702Z,24.59
2022-12-25T18:18:53.791Z,24.61
2022-12-25T18:21:21.557Z,24.65
2022-12-25T18:23:48.790Z,24.65
2022-12-25T18:26:15.828Z,24.67
2022-12-25T18:28:44.412Z,24.69
2022-12-25T18:31:16.884Z,24.68
2022-12-25T18:33:44.799Z,24.70
2022-12-25T18:36:13.152Z,24.70
2022-12-25T18:38:40.504Z,24.72
2022-12-25T18:41:09.599Z,24.72
2022-12-25T18:43:53.663Z,24.76
2022-12-25T18:46:24.930Z,24.75
2022-12-25T18:48:52.538Z,24.76
2022-12-25T18:51:19.519Z,24.78
2022-12-25T18:53:46.461Z,24.79
2022-12-25T18:56:17.409Z,24.79
2022-12-25T18:58:45.695Z,24.80
2022-12-25T19:01:15.367Z,24.82
2022-12-25T19:03:44.438Z,24.81
2022-12-25T19:06:17.200Z,24.82
2022-12-25T19:08:44.323Z,24.84
2022-12-25T19:11:11.236Z,24.83
2022-12-25T19:13:38.257Z,24.85
2022-12-25T19:16:05.632Z,24.85
2022-12-25T19:18:32.541Z,24.86
2022-12-25T19:21:02.874Z,24.89
2022-12-25T19:23:29.885Z,24.88
2022-12-25T19:25:56.845Z,24.87
2022-12-25T19:28:25.105Z,24.89
2022-12-25T19:30:52.849Z,24.89
2022-12-25T19:33:20.190Z,24.89
2022-12-25T19:35:48.322Z,24.91
2022-12-25T19:38:16.650Z,24.91
2022-12-25T19:41:00.386Z,24.92
2022-12-25T19:43:28.289Z,24.93
2022-12-25T19:45:55.201Z,24.92
2022-12-25T19:48:22.318Z,24.91
2022-12-25T19:50:49.420Z,24.93
2022-12-25T19:53:18.501Z,24.95
2022-12-25T19:55:45.520Z,24.95
2022-12-25T19:58:12.622Z,24.96
2022-12-25T20:00:40.519Z,24.97
2022-12-25T20:03:09.727Z,24.98
2022-12-25T20:05:36.956Z,24.97
2022-12-25T20:08:03.944Z,24.97
2022-12-25T20:10:32.201Z,24.98
2022-12-25T20:12:59.086Z,25.00
2022-12-25T20:15:26.182Z,25.00
2022-12-25T20:17:54.769Z,25.02
2022-12-25T20:20:21.645Z,25.02
2022-12-25T20:22:48.690Z,25.02
2022-12-25T20:25:15.709Z,25.02
2022-12-25T20:27:44.005Z,25.03
2022-12-25T20:30:11.959Z,25.03
2022-12-25T20:32:39.028Z,25.04
2022-12-25T20:35:07.722Z,25.05
2022-12-25T20:37:34.699Z,25.05
2022-12-25T20:40:01.707Z,25.06
2022-12-25T20:42:28.563Z,25.05
2022-12-25T20:44:56.810Z,25.04
2022-12-25T20:47:23.835Z,25.02
2022-12-25T20:49:50.811Z,25.01
2022-12-25T20:52:17.779Z,25.01
2022-12-25T20:54:44.736Z,24.99
2022-12-25T20:57:11.590Z,24.96
2022-12-25T20:59:38.523Z,24.95
2022-12-25T21:02:07.115Z,24.93
2022-12-25T21:04:34.366Z,24.93
2022-12-25T21:07:02.542Z,24.90
2022-12-25T21:09:29.548Z,24.90
2022-12-25T21:11:57.007Z,24.91
2022-12-25T21:14:23.998Z,24.93
2022-12-25T21:16:51.045Z,24.91
2022-12-25T21:19:19.372Z,24.92
2022-12-25T21:21:46.258Z,24.91
2022-12-25T21:24:13.158Z,24.90
2022-12-25T21:26:46.119Z,24.89
2022-12-25T21:29:16.665Z,24.90
2022-12-25T21:32:01.787Z,24.90
2022-12-25T21:34:30.919Z,24.89
2022-12-25T21:36:57.926Z,24.89
2022-12-25T21:39:24.851Z,24.88
2022-12-25T21:41:52.870Z,24.88
2022-12-25T21:44:19.746Z,24.88
2022-12-25T21:46:46.679Z,24.85
2022-12-25T21:49:33.564Z,24.85
2022-12-25T21:52:08.207Z,24.84
2022-12-25T21:54:35.443Z,24.85
2022-12-25T21:57:02.408Z,24.84
2022-12-25T21:59:29.647Z,24.82
2022-12-25T22:01:56.807Z,24.83
2022-12-25T22:04:23.837Z,24.87
2022-12-25T22:07:09.308Z,24.86
2022-12-25T22:09:38.080Z,24.84
2022-12-25T22:12:26.209Z,24.85
2022-12-25T22:15:02.787Z,24.83
2022-12-25T22:17:51.075Z,24.83
2022-12-25T22:20:20.487Z,24.82
2022-12-25T22:22:48.365Z,24.80
2022-12-25T22:25:17.397Z,24.80
2022-12-25T22:27:45.980Z,24.83
2022-12-25T22:30:15.718Z,24.82
2022-12-25T22:32:43.047Z,24.82
2022-12-25T22:35:12.399Z,24.80
2022-12-25T22:37:40.133Z,24.79
2022-12-25T22:40:08.290Z,24.80
2022-12-25T22:42:36.850Z,24.79
2022-12-25T22:45:04.428Z,24.81
2022-12-25T22:47:31.358Z,24.80
2022-12-25T22:49:58.393Z,24.80
2022-12-25T22:52:25.325Z,24.79
2022-12-25T22:54:52.235Z,24.77
2022-12-25T22:57:19.170Z,24.76
2022-12-25T22:59:47.564Z,24.76
2022-12-25T23:02:14.749Z,24.77
2022-12-25T23:04:42.074Z,24.75
2022-12-25T23:07:10.470Z,24.77
2022-12-25T23:09:37.681Z,24.76
2022-12-25T23:12:05.322Z,24.76
2022-12-25T23:14:41.098Z,24.76
2022-12-25T23:17:31.525Z,24.75
2022-12-25T23:20:18.299Z,24.73
2022-12-25T23:23:04.234Z,24.72
2022-12-25T23:25:49.927Z,24.72
2022-12-25T23:28:36.866Z,24.71
2022-12-25T23:31:03.923Z,24.71
2022-12-25T23:33:32.346Z,24.70
2022-12-25T23:35:59.201Z,24.69
2022-12-25T23:38:26.087Z,24.69
2022-12-25T23:40:53.054Z,24.69
2022-12-25T23:43:19.884Z,24.68
2022-12-25T23:45:46.825Z,24.69
2022-12-25T23:48:13.726Z,24.70
2022-12-25T23:50:42.019Z,24.70
2022-12-25T23:53:09.939Z,24.70
2022-12-25T23:55:37.032Z,24.70
2022-12-25T23:58:04.326Z,24.70
